createdAt,value
2017-12-17T00:00:21.297Z,3.70
2017-12-17T00:01:21.348Z,3.63
2017-12-17T00:03:14.342Z,3.62
2017-12-17T00:04:14.378Z,3.58
2017-12-17T00:06:07.388Z,3.47
2017-12-17T00:07:07.405Z,3.47
2017-12-17T00:09:00.423Z,3.51
2017-12-17T00:10:00.435Z,3.41
2017-12-17T00:11:53.438Z,3.28
2017-12-17T00:12:53.464Z,3.22
2017-12-17T00:14:46.444Z,3.36
2017-12-17T00:15:46.493Z,3.40
2017-12-17T00:17:39.497Z,3.47
2017-12-17T00:18:39.530Z,3.44
2017-12-17T00:20:32.512Z,3.47
2017-12-17T00:21:32.558Z,3.53
2017-12-17T00:23:25.555Z,3.51
2017-12-17T00:24:25.587Z,3.47
2017-12-17T00:26:18.583Z,3.48
2017-12-17T00:27:18.615Z,3.47
2017-12-17T00:29:11.613Z,3.62
2017-12-17T00:30:11.646Z,3.58
2017-12-17T00:32:04.641Z,3.53
2017-12-17T00:33:04.675Z,3.56
2017-12-17T00:34:57.701Z,3.55
2017-12-17T00:35:57.709Z,3.63
2017-12-17T00:37:50.700Z,3.59
2017-12-17T00:38:50.735Z,3.53
2017-12-17T00:40:43.717Z,3.56
2017-12-17T00:41:43.766Z,3.51
2017-12-17T00:43:36.766Z,3.62
2017-12-17T00:44:36.801Z,3.62
2017-12-17T00:46:29.793Z,3.58
2017-12-17T00:47:29.829Z,3.62
2017-12-17T00:49:22.804Z,3.59
2017-12-17T00:50:22.859Z,3.60
2017-12-17T00:52:15.858Z,3.58
2017-12-17T00:53:15.896Z,3.47
2017-12-17T00:55:08.878Z,3.48
2017-12-17T00:56:08.927Z,3.51
2017-12-17T00:58:02.439Z,3.47
2017-12-17T00:59:02.463Z,3.48
2017-12-17T01:00:55.435Z,3.48
2017-12-17T01:01:55.493Z,3.59
2017-12-17T01:03:48.487Z,3.60
2017-12-17T01:04:48.519Z,3.60
2017-12-17T01:06:41.515Z,3.55
2017-12-17T01:07:41.549Z,3.47
2017-12-17T01:09:34.525Z,3.42
2017-12-17T01:10:34.578Z,3.42
2017-12-17T01:12:27.571Z,3.42
2017-12-17T01:13:27.611Z,3.41
2017-12-17T01:15:20.590Z,3.37
2017-12-17T01:16:20.636Z,3.34
2017-12-17T01:18:13.630Z,3.40
2017-12-17T01:19:13.671Z,3.42
2017-12-17T01:21:06.639Z,3.29
2017-12-17T01:22:06.697Z,3.14
2017-12-17T01:23:59.696Z,3.23
2017-12-17T01:24:59.726Z,3.11
2017-12-17T01:26:52.721Z,3.08
2017-12-17T01:27:52.760Z,3.14
2017-12-17T01:29:45.730Z,3.10
2017-12-17T01:30:45.784Z,3.10
2017-12-17T01:32:38.778Z,3.05
2017-12-17T01:33:38.823Z,3.03
2017-12-17T01:35:31.844Z,3.07
2017-12-17T01:36:31.842Z,3.00
2017-12-17T01:38:24.842Z,3.01
2017-12-17T01:39:24.871Z,3.01
2017-12-17T01:41:17.846Z,2.90
2017-12-17T01:42:17.900Z,2.89
2017-12-17T01:44:10.896Z,2.97
2017-12-17T01:45:10.935Z,2.93
2017-12-17T01:47:03.934Z,2.86
2017-12-17T01:48:03.959Z,2.79
2017-12-17T01:49:56.938Z,2.85
2017-12-17T01:50:56.989Z,2.79
2017-12-17T01:52:49.981Z,2.82
2017-12-17T01:53:50.015Z,2.89
2017-12-17T01:55:43.008Z,2.87
2017-12-17T01:56:43.076Z,2.89
2017-12-17T01:58:36.051Z,2.95
2017-12-17T01:59:36.080Z,2.95
2017-12-17T02:01:29.052Z,2.93
2017-12-17T02:02:29.106Z,2.93
2017-12-17T02:04:22.125Z,3.03
2017-12-17T02:05:22.140Z,3.08
2017-12-17T02:07:15.147Z,3.14
2017-12-17T02:08:15.178Z,3.16
2017-12-17T02:10:08.159Z,3.14
2017-12-17T02:11:08.207Z,3.10
2017-12-17T02:13:01.207Z,3.19
2017-12-17T02:14:01.237Z,3.13
2017-12-17T02:15:54.207Z,3.22
2017-12-17T02:16:54.263Z,3.21
2017-12-17T02:18:47.260Z,3.21
2017-12-17T02:19:47.294Z,3.18
2017-12-17T02:21:40.269Z,3.23
2017-12-17T02:22:40.325Z,3.21
2017-12-17T02:24:33.317Z,3.18
2017-12-17T02:25:33.353Z,3.18
2017-12-17T02:27:26.353Z,3.31
2017-12-17T02:28:26.389Z,3.41
2017-12-17T02:30:19.369Z,3.42
2017-12-17T02:31:19.417Z,3.31
2017-12-17T02:33:12.412Z,3.37
2017-12-17T02:34:12.446Z,3.28
2017-12-17T02:36:05.420Z,3.28
2017-12-17T02:37:05.476Z,3.37
2017-12-17T02:38:58.468Z,3.32
2017-12-17T02:39:58.505Z,3.37
2017-12-17T02:41:51.493Z,3.37
2017-12-17T02:42:51.534Z,3.40
2017-12-17T02:44:44.541Z,3.34
2017-12-17T02:45:44.561Z,3.31
2017-12-17T02:47:37.778Z,3.32
2017-12-17T02:48:37.600Z,3.42
2017-12-17T02:50:31.647Z,3.41
2017-12-17T02:51:31.669Z,3.41
2017-12-17T02:53:29.704Z,3.40
2017-12-17T02:54:24.696Z,3.40
2017-12-17T02:56:17.670Z,3.47
2017-12-17T02:57:17.725Z,3.45
2017-12-17T02:59:10.718Z,3.45
2017-12-17T03:00:10.755Z,3.53
2017-12-17T03:02:03.734Z,3.53
2017-12-17T03:03:03.782Z,3.50
2017-12-17T03:04:56.778Z,3.41
2017-12-17T03:05:56.818Z,3.55
2017-12-17T03:07:49.838Z,3.51
2017-12-17T03:08:49.842Z,3.45
2017-12-17T03:10:42.822Z,3.50
2017-12-17T03:11:42.872Z,3.56
2017-12-17T03:13:35.868Z,3.48
2017-12-17T03:14:35.900Z,3.48
2017-12-17T03:16:28.874Z,3.50
2017-12-17T03:17:28.931Z,3.53
2017-12-17T03:19:21.924Z,3.48
2017-12-17T03:20:21.965Z,3.55
2017-12-17T03:22:14.944Z,3.60
2017-12-17T03:23:14.988Z,3.60
2017-12-17T03:25:07.984Z,3.58
2017-12-17T03:26:08.018Z,3.53
2017-12-17T03:28:01.013Z,3.63
2017-12-17T03:29:01.047Z,3.53
2017-12-17T03:30:54.021Z,3.58
2017-12-17T03:31:54.076Z,3.53
2017-12-17T03:33:47.073Z,3.56
2017-12-17T03:34:47.114Z,3.47
2017-12-17T03:36:40.093Z,3.56
2017-12-17T03:37:40.137Z,3.50
2017-12-17T03:39:33.148Z,3.56
2017-12-17T03:40:33.166Z,3.51
2017-12-17T03:42:26.141Z,3.48
2017-12-17T03:43:26.197Z,3.50
2017-12-17T03:45:19.199Z,3.53
2017-12-17T03:46:19.232Z,3.50
2017-12-17T03:48:12.223Z,3.53
2017-12-17T03:49:12.265Z,3.50
2017-12-17T03:51:05.233Z,3.51
2017-12-17T03:52:05.286Z,3.48
2017-12-17T03:53:58.282Z,3.50
2017-12-17T03:54:58.318Z,3.55
2017-12-17T03:56:51.292Z,3.47
2017-12-17T03:57:51.345Z,3.44
2017-12-17T03:59:44.341Z,3.50
2017-12-17T04:00:44.375Z,3.42
2017-12-17T04:02:37.355Z,3.44
2017-12-17T04:03:37.408Z,3.45
2017-12-17T04:05:30.404Z,3.60
2017-12-17T04:06:30.432Z,3.59
2017-12-17T04:08:23.428Z,3.59
2017-12-17T04:09:23.462Z,3.53
2017-12-17T04:11:16.435Z,3.55
2017-12-17T04:12:16.498Z,3.58
2017-12-17T04:14:09.484Z,3.60
2017-12-17T04:15:09.521Z,3.62
2017-12-17T04:17:02.501Z,3.55
2017-12-17T04:18:02.548Z,3.56
2017-12-17T04:19:55.541Z,3.59
2017-12-17T04:20:55.578Z,3.63
2017-12-17T04:22:48.579Z,3.59
2017-12-17T04:23:48.606Z,3.59
2017-12-17T04:25:41.587Z,3.56
2017-12-17T04:26:41.638Z,3.56
2017-12-17T04:28:34.630Z,3.68
2017-12-17T04:29:34.665Z,3.62
2017-12-17T04:31:27.641Z,3.56
2017-12-17T04:32:27.693Z,3.55
2017-12-17T04:34:20.688Z,3.51
2017-12-17T04:35:20.721Z,3.37
2017-12-17T04:37:13.701Z,3.58
2017-12-17T04:38:13.761Z,3.47
2017-12-17T04:40:06.760Z,3.45
2017-12-17T04:41:06.794Z,3.45
2017-12-17T04:42:59.792Z,3.47
2017-12-17T04:43:59.825Z,3.48
2017-12-17T04:45:52.799Z,3.41
2017-12-17T04:46:52.853Z,3.48
2017-12-17T04:48:45.857Z,3.56
2017-12-17T04:49:45.889Z,3.48
2017-12-17T04:51:38.864Z,3.62
2017-12-17T04:52:38.916Z,3.48
2017-12-17T04:54:31.916Z,3.62
2017-12-17T04:55:31.946Z,3.53
2017-12-17T04:57:25.430Z,3.47
2017-12-17T04:58:25.482Z,3.51
2017-12-17T05:00:18.478Z,3.51
2017-12-17T05:01:18.515Z,3.51
2017-12-17T05:03:11.511Z,3.44
2017-12-17T05:04:11.544Z,3.48
2017-12-17T05:06:04.529Z,3.48
2017-12-17T05:07:04.574Z,3.47
2017-12-17T05:08:57.568Z,3.44
2017-12-17T05:09:57.603Z,3.41
2017-12-17T05:11:50.582Z,3.37
2017-12-17T05:12:50.631Z,3.34
2017-12-17T05:14:43.627Z,3.40
2017-12-17T05:15:43.664Z,3.37
2017-12-17T05:17:36.638Z,3.45
2017-12-17T05:18:36.690Z,3.41
2017-12-17T05:20:29.689Z,3.40
2017-12-17T05:21:29.717Z,3.42
2017-12-17T05:23:22.714Z,3.42
2017-12-17T05:24:22.748Z,3.42
2017-12-17T05:26:15.722Z,3.42
2017-12-17T05:27:15.777Z,3.42
2017-12-17T05:29:08.772Z,3.40
2017-12-17T05:30:08.806Z,3.44
2017-12-17T05:32:01.798Z,3.44
2017-12-17T05:33:01.838Z,3.40
2017-12-17T05:34:54.836Z,3.29
2017-12-17T05:35:54.914Z,3.28
2017-12-17T05:37:47.841Z,3.23
2017-12-17T05:38:47.897Z,3.19
2017-12-17T05:40:40.894Z,3.19
2017-12-17T05:41:40.932Z,3.29
2017-12-17T05:43:33.925Z,3.21
2017-12-17T05:44:33.954Z,3.21
2017-12-17T05:46:26.940Z,3.21
2017-12-17T05:47:26.986Z,3.18
2017-12-17T05:49:19.980Z,3.22
2017-12-17T05:50:20.015Z,3.21
2017-12-17T05:52:12.992Z,3.13
2017-12-17T05:53:13.041Z,3.14
2017-12-17T05:55:06.037Z,3.11
2017-12-17T05:56:06.071Z,3.07
2017-12-17T05:57:59.561Z,3.13
2017-12-17T05:58:59.605Z,3.04
2017-12-17T06:00:52.614Z,3.11
2017-12-17T06:01:52.636Z,3.08
2017-12-17T06:03:45.641Z,3.08
2017-12-17T06:04:45.664Z,3.04
2017-12-17T06:06:38.645Z,3.05
2017-12-17T06:07:38.698Z,3.07
2017-12-17T06:09:31.691Z,3.00
2017-12-17T06:10:31.723Z,2.93
2017-12-17T06:12:24.702Z,2.98
2017-12-17T06:13:24.752Z,3.01
2017-12-17T06:15:17.749Z,3.03
2017-12-17T06:16:17.791Z,3.01
2017-12-17T06:18:10.763Z,3.07
2017-12-17T06:19:10.810Z,3.00
2017-12-17T06:21:03.807Z,3.01
2017-12-17T06:22:03.837Z,3.03
2017-12-17T06:23:56.833Z,3.03
2017-12-17T06:24:56.866Z,3.00
2017-12-17T06:26:49.846Z,3.08
2017-12-17T06:27:49.896Z,3.05
2017-12-17T06:29:42.892Z,2.97
2017-12-17T06:30:42.922Z,2.98
2017-12-17T06:32:35.915Z,2.93
2017-12-17T06:33:35.954Z,2.95
2017-12-17T06:35:28.947Z,2.90
2017-12-17T06:36:28.981Z,2.89
2017-12-17T06:38:21.957Z,3.00
2017-12-17T06:39:22.089Z,2.95
2017-12-17T06:41:15.010Z,2.95
2017-12-17T06:42:15.038Z,2.93
2017-12-17T06:44:08.037Z,2.95
2017-12-17T06:45:08.076Z,2.97
2017-12-17T06:47:01.053Z,2.93
2017-12-17T06:48:01.102Z,2.93
2017-12-17T06:49:54.103Z,3.04
2017-12-17T06:50:54.133Z,3.01
2017-12-17T06:52:47.123Z,3.04
2017-12-17T06:53:47.163Z,3.03
2017-12-17T06:55:40.181Z,3.04
2017-12-17T06:56:40.229Z,3.03
2017-12-17T06:58:33.168Z,2.97
2017-12-17T06:59:33.223Z,2.89
2017-12-17T07:01:26.227Z,2.86
2017-12-17T07:02:26.246Z,2.89
2017-12-17T07:04:19.249Z,2.93
2017-12-17T07:05:19.276Z,2.93
2017-12-17T07:07:12.257Z,2.86
2017-12-17T07:08:12.308Z,2.89
2017-12-17T07:10:05.305Z,2.89
2017-12-17T07:11:05.338Z,2.86
2017-12-17T07:12:58.317Z,2.83
2017-12-17T07:13:58.366Z,2.85
2017-12-17T07:15:51.566Z,2.75
2017-12-17T07:16:51.405Z,2.74
2017-12-17T07:18:44.379Z,2.75
2017-12-17T07:19:44.439Z,2.75
2017-12-17T07:21:37.427Z,2.83
2017-12-17T07:22:37.524Z,2.74
2017-12-17T07:24:30.478Z,2.80
2017-12-17T07:25:30.490Z,2.72
2017-12-17T07:27:23.483Z,2.80
2017-12-17T07:28:23.526Z,2.80
2017-12-17T07:30:16.521Z,2.77
2017-12-17T07:31:16.553Z,2.79
2017-12-17T07:33:09.533Z,2.82
2017-12-17T07:34:09.592Z,2.75
2017-12-17T07:36:02.582Z,2.75
2017-12-17T07:37:02.617Z,2.75
2017-12-17T07:38:55.600Z,2.71
2017-12-17T07:39:55.662Z,2.85
2017-12-17T07:41:48.643Z,2.74
2017-12-17T07:42:48.675Z,2.90
2017-12-17T07:44:41.776Z,2.85
2017-12-17T07:45:41.709Z,2.86
2017-12-17T07:47:34.684Z,2.89
2017-12-17T07:48:34.736Z,2.90
2017-12-17T07:50:27.764Z,2.90
2017-12-17T07:51:27.767Z,2.89
2017-12-17T07:53:20.823Z,2.85
2017-12-17T07:54:20.809Z,2.82
2017-12-17T07:56:13.806Z,2.92
2017-12-17T07:57:13.830Z,2.80
2017-12-17T07:59:06.802Z,2.82
2017-12-17T08:00:06.858Z,2.79
2017-12-17T08:01:59.851Z,2.82
2017-12-17T08:02:59.890Z,2.85
2017-12-17T08:04:52.881Z,2.77
2017-12-17T08:05:52.925Z,2.77
2017-12-17T08:07:45.955Z,2.79
2017-12-17T08:08:45.944Z,2.80
2017-12-17T08:10:39.048Z,2.86
2017-12-17T08:11:38.973Z,2.83
2017-12-17T08:13:31.953Z,2.93
2017-12-17T08:14:32.006Z,2.89
2017-12-17T08:16:25.143Z,2.82
2017-12-17T08:17:25.032Z,2.89
2017-12-17T08:19:18.006Z,2.87
2017-12-17T08:20:18.062Z,2.87
2017-12-17T08:22:11.237Z,2.89
2017-12-17T08:23:11.098Z,2.83
2017-12-17T08:25:04.092Z,2.80
2017-12-17T08:26:04.127Z,2.74
2017-12-17T08:27:57.215Z,2.82
2017-12-17T08:28:57.154Z,2.79
2017-12-17T08:30:50.231Z,2.89
2017-12-17T08:31:50.242Z,2.86
2017-12-17T08:33:43.156Z,2.83
2017-12-17T08:34:43.210Z,2.85
2017-12-17T08:36:36.205Z,2.93
2017-12-17T08:37:36.240Z,2.87
2017-12-17T08:39:29.240Z,2.83
2017-12-17T08:40:29.269Z,2.89
2017-12-17T08:42:22.266Z,2.97
2017-12-17T08:43:22.299Z,2.97
2017-12-17T08:45:15.562Z,3.04
2017-12-17T08:46:15.341Z,3.00
2017-12-17T08:48:08.470Z,3.00
2017-12-17T08:49:08.366Z,3.01
2017-12-17T08:51:01.360Z,3.08
2017-12-17T08:52:01.398Z,3.05
2017-12-17T08:53:54.368Z,3.07
2017-12-17T08:54:54.436Z,3.11
2017-12-17T08:56:47.449Z,3.08
2017-12-17T08:57:47.458Z,3.11
2017-12-17T08:59:40.557Z,3.10
2017-12-17T09:00:40.497Z,3.07
2017-12-17T09:02:33.655Z,3.08
2017-12-17T09:03:33.529Z,3.08
2017-12-17T09:05:26.621Z,3.19
2017-12-17T09:06:26.558Z,3.22
2017-12-17T09:08:19.535Z,3.16
2017-12-17T09:09:19.589Z,3.21
2017-12-17T09:11:12.702Z,3.16
2017-12-17T09:12:12.621Z,3.13
2017-12-17T09:14:05.775Z,3.21
2017-12-17T09:15:05.693Z,3.25
2017-12-17T09:16:58.798Z,3.25
2017-12-17T09:17:58.686Z,3.23
2017-12-17T09:19:51.824Z,3.21
2017-12-17T09:20:51.714Z,3.21
2017-12-17T09:22:44.703Z,3.28
2017-12-17T09:23:44.745Z,3.28
2017-12-17T09:25:37.733Z,3.22
2017-12-17T09:26:37.767Z,3.16
2017-12-17T09:28:30.771Z,3.16
2017-12-17T09:29:30.804Z,3.11
2017-12-17T09:31:23.800Z,3.11
2017-12-17T09:32:23.832Z,3.16
2017-12-17T09:34:17.018Z,3.16
2017-12-17T09:35:16.861Z,3.26
2017-12-17T09:37:09.862Z,3.29
2017-12-17T09:38:09.898Z,3.29
2017-12-17T09:40:02.876Z,3.34
2017-12-17T09:41:03.102Z,3.45
2017-12-17T09:42:55.928Z,3.44
2017-12-17T09:43:55.961Z,3.50
2017-12-17T09:45:48.959Z,3.48
2017-12-17T09:46:48.991Z,3.62
2017-12-17T09:48:41.966Z,3.56
2017-12-17T09:49:42.021Z,3.53
2017-12-17T09:51:35.154Z,3.60
2017-12-17T09:52:35.052Z,3.53
2017-12-17T09:54:28.190Z,3.55
2017-12-17T09:55:28.121Z,3.51
2017-12-17T09:57:21.112Z,3.44
2017-12-17T09:58:21.148Z,3.47
2017-12-17T10:00:14.827Z,3.47
2017-12-17T10:01:14.683Z,3.42
2017-12-17T10:03:07.682Z,3.47
2017-12-17T10:04:07.712Z,3.48
2017-12-17T10:06:00.870Z,3.55
2017-12-17T10:07:00.740Z,3.66
2017-12-17T10:08:53.893Z,3.73
2017-12-17T10:09:53.784Z,3.80
2017-12-17T10:11:46.951Z,3.94
2017-12-17T10:12:46.801Z,3.95
2017-12-17T10:14:39.778Z,4.04
2017-12-17T10:15:39.832Z,4.06
2017-12-17T10:17:32.930Z,4.02
2017-12-17T10:18:32.862Z,4.04
2017-12-17T10:20:25.929Z,3.94
2017-12-17T10:21:25.906Z,3.98
2017-12-17T10:23:19.052Z,4.14
2017-12-17T10:24:18.936Z,4.10
2017-12-17T10:26:11.932Z,4.26
2017-12-17T10:27:11.968Z,4.37
2017-12-17T10:29:04.969Z,4.37
2017-12-17T10:30:05.028Z,4.32
2017-12-17T10:31:58.028Z,4.26
2017-12-17T10:32:58.063Z,4.14
2017-12-17T10:34:51.046Z,4.26
2017-12-17T10:35:51.094Z,4.28
2017-12-17T10:37:44.089Z,4.31
2017-12-17T10:38:44.124Z,4.32
2017-12-17T10:40:37.184Z,4.26
2017-12-17T10:41:37.157Z,4.19
2017-12-17T10:43:30.265Z,4.10
2017-12-17T10:44:30.194Z,4.16
2017-12-17T10:46:23.188Z,4.26
2017-12-17T10:47:23.223Z,4.30
2017-12-17T10:49:16.210Z,4.60
2017-12-17T10:50:16.257Z,4.77
2017-12-17T10:52:09.264Z,4.50
2017-12-17T10:53:09.286Z,4.50
2017-12-17T10:55:02.377Z,4.40
2017-12-17T10:56:02.318Z,4.32
2017-12-17T10:57:55.342Z,4.44
2017-12-17T10:58:55.360Z,4.48
2017-12-17T11:00:49.860Z,4.53
2017-12-17T11:01:49.893Z,4.48
2017-12-17T11:03:42.866Z,4.34
2017-12-17T11:04:42.925Z,4.28
2017-12-17T11:06:35.986Z,4.28
2017-12-17T11:07:35.955Z,4.22
2017-12-17T11:09:28.940Z,4.30
2017-12-17T11:10:28.991Z,4.38
2017-12-17T11:12:22.030Z,4.40
2017-12-17T11:13:22.065Z,4.53
2017-12-17T11:15:15.120Z,4.50
2017-12-17T11:16:15.095Z,4.49
2017-12-17T11:18:08.109Z,4.38
2017-12-17T11:19:08.240Z,4.34
2017-12-17T11:21:01.135Z,4.26
2017-12-17T11:22:01.175Z,4.38
2017-12-17T11:23:54.318Z,4.48
2017-12-17T11:24:54.201Z,4.48
2017-12-17T11:26:47.198Z,4.62
2017-12-17T11:27:47.263Z,4.63
2017-12-17T11:29:40.229Z,4.56
2017-12-17T11:30:40.267Z,4.53
2017-12-17T11:32:33.287Z,4.49
2017-12-17T11:33:33.307Z,4.42
2017-12-17T11:35:26.296Z,4.49
2017-12-17T11:36:26.345Z,4.56
2017-12-17T11:38:19.348Z,4.49
2017-12-17T11:39:19.378Z,4.50
2017-12-17T11:41:12.535Z,4.30
2017-12-17T11:42:12.417Z,4.30
2017-12-17T11:44:05.488Z,4.10
2017-12-17T11:45:05.453Z,4.31
2017-12-17T11:46:58.451Z,4.32
2017-12-17T11:47:58.485Z,4.26
2017-12-17T11:49:51.511Z,4.44
2017-12-17T11:50:51.517Z,4.62
2017-12-17T11:52:44.516Z,4.59
2017-12-17T11:53:44.554Z,4.59
2017-12-17T11:55:37.537Z,4.55
2017-12-17T11:56:37.589Z,4.55
2017-12-17T11:58:30.721Z,4.53
2017-12-17T11:59:30.617Z,4.55
2017-12-17T12:01:23.738Z,4.59
2017-12-17T12:02:23.650Z,4.60
2017-12-17T12:04:16.633Z,4.74
2017-12-17T12:05:16.688Z,4.71
2017-12-17T12:07:09.679Z,4.60
2017-12-17T12:08:09.717Z,4.62
2017-12-17T12:10:02.865Z,4.74
2017-12-17T12:11:02.745Z,4.60
2017-12-17T12:12:55.901Z,4.73
2017-12-17T12:13:55.817Z,4.75
2017-12-17T12:15:48.949Z,4.67
2017-12-17T12:16:48.820Z,4.78
2017-12-17T12:18:41.977Z,4.60
2017-12-17T12:19:41.855Z,4.60
2017-12-17T12:21:34.880Z,4.60
2017-12-17T12:22:34.894Z,4.55
2017-12-17T12:24:27.879Z,4.52
2017-12-17T12:25:27.931Z,4.48
2017-12-17T12:27:21.117Z,4.44
2017-12-17T12:28:20.965Z,4.44
2017-12-17T12:30:13.941Z,4.42
2017-12-17T12:31:13.995Z,4.44
2017-12-17T12:33:07.234Z,4.50
2017-12-17T12:34:07.027Z,4.50
2017-12-17T12:36:00.001Z,4.41
2017-12-17T12:37:00.056Z,4.48
2017-12-17T12:38:53.060Z,4.38
2017-12-17T12:39:53.097Z,4.45
2017-12-17T12:41:46.194Z,4.50
2017-12-17T12:42:46.129Z,4.62
2017-12-17T12:44:39.112Z,4.48
2017-12-17T12:45:39.162Z,4.50
2017-12-17T12:47:32.158Z,4.62
2017-12-17T12:48:32.194Z,4.59
2017-12-17T12:50:25.167Z,4.70
2017-12-17T12:51:25.227Z,4.62
2017-12-17T12:53:18.302Z,4.63
2017-12-17T12:54:18.255Z,4.67
2017-12-17T12:56:11.311Z,4.63
2017-12-17T12:57:11.286Z,4.75
2017-12-17T12:59:04.282Z,4.90
2017-12-17T13:00:04.316Z,4.87
2017-12-17T13:01:57.314Z,4.96
2017-12-17T13:02:57.349Z,4.75
2017-12-17T13:04:50.351Z,4.86
2017-12-17T13:05:50.391Z,4.70
2017-12-17T13:07:43.424Z,4.60
2017-12-17T13:08:43.416Z,4.66
2017-12-17T13:10:36.470Z,4.73
2017-12-17T13:11:36.446Z,4.80
2017-12-17T13:13:29.511Z,4.75
2017-12-17T13:14:29.476Z,4.74
2017-12-17T13:16:22.451Z,4.60
2017-12-17T13:17:22.507Z,4.63
2017-12-17T13:19:15.580Z,4.60
2017-12-17T13:20:15.547Z,4.59
2017-12-17T13:22:08.533Z,4.70
2017-12-17T13:23:08.570Z,4.74
2017-12-17T13:25:01.687Z,4.63
2017-12-17T13:26:01.668Z,4.80
2017-12-17T13:27:54.690Z,4.80
2017-12-17T13:28:54.632Z,4.74
2017-12-17T13:30:47.609Z,4.74
2017-12-17T13:31:47.665Z,4.62
2017-12-17T13:33:40.752Z,4.66
2017-12-17T13:34:40.702Z,4.60
2017-12-17T13:36:33.782Z,4.53
2017-12-17T13:37:33.733Z,4.58
2017-12-17T13:39:26.793Z,4.53
2017-12-17T13:40:26.763Z,4.52
2017-12-17T13:42:19.758Z,4.48
2017-12-17T13:43:19.801Z,4.50
2017-12-17T13:45:12.771Z,4.45
2017-12-17T13:46:12.833Z,4.38
2017-12-17T13:48:05.827Z,4.35
2017-12-17T13:49:05.932Z,4.41
2017-12-17T13:50:58.834Z,4.26
2017-12-17T13:51:58.888Z,4.20
2017-12-17T13:53:51.901Z,4.22
2017-12-17T13:54:51.937Z,4.23
2017-12-17T13:56:44.918Z,4.16
2017-12-17T13:57:44.971Z,4.13
2017-12-17T13:59:37.962Z,4.24
2017-12-17T14:00:37.998Z,4.20
2017-12-17T14:02:30.993Z,4.14
2017-12-17T14:03:31.030Z,4.10
2017-12-17T14:05:24.005Z,4.14
2017-12-17T14:06:24.059Z,4.16
2017-12-17T14:08:17.111Z,4.05
2017-12-17T14:09:17.089Z,4.04
2017-12-17T14:11:10.178Z,4.05
2017-12-17T14:12:10.145Z,4.17
2017-12-17T14:14:03.141Z,4.08
2017-12-17T14:15:03.177Z,4.08
2017-12-17T14:16:56.258Z,4.12
2017-12-17T14:17:56.213Z,4.13
2017-12-17T14:19:49.214Z,4.05
2017-12-17T14:20:49.248Z,4.10
2017-12-17T14:22:42.247Z,4.20
2017-12-17T14:23:42.280Z,4.19
2017-12-17T14:25:35.330Z,4.14
2017-12-17T14:26:35.316Z,4.17
2017-12-17T14:28:28.395Z,4.16
2017-12-17T14:29:28.393Z,4.19
2017-12-17T14:31:21.415Z,4.19
2017-12-17T14:32:21.381Z,4.12
2017-12-17T14:34:14.380Z,4.23
2017-12-17T14:35:14.425Z,4.12
2017-12-17T14:37:07.432Z,4.13
2017-12-17T14:38:07.448Z,4.10
2017-12-17T14:40:00.454Z,4.24
2017-12-17T14:41:00.491Z,4.26
2017-12-17T14:42:53.536Z,4.23
2017-12-17T14:43:53.527Z,4.26
2017-12-17T14:45:46.501Z,4.12
2017-12-17T14:46:46.557Z,4.17
2017-12-17T14:48:39.602Z,4.19
2017-12-17T14:49:39.586Z,4.14
2017-12-17T14:51:32.685Z,4.22
2017-12-17T14:52:32.616Z,4.13
2017-12-17T14:54:25.695Z,4.20
2017-12-17T14:55:25.654Z,4.19
2017-12-17T14:57:18.627Z,4.19
2017-12-17T14:58:18.683Z,4.19
2017-12-17T15:00:12.338Z,4.19
2017-12-17T15:01:12.219Z,4.20
2017-12-17T15:03:05.213Z,4.19
2017-12-17T15:04:05.249Z,4.17
2017-12-17T15:05:58.224Z,4.23
2017-12-17T15:06:58.281Z,4.17
2017-12-17T15:08:51.383Z,4.19
2017-12-17T15:09:51.324Z,4.13
2017-12-17T15:11:44.374Z,4.17
2017-12-17T15:12:44.358Z,4.20
2017-12-17T15:14:37.366Z,4.13
2017-12-17T15:15:37.403Z,4.19
2017-12-17T15:17:30.548Z,4.22
2017-12-17T15:18:30.435Z,4.16
2017-12-17T15:20:23.462Z,4.19
2017-12-17T15:21:23.461Z,4.19
2017-12-17T15:23:16.458Z,4.10
2017-12-17T15:24:16.492Z,4.16
2017-12-17T15:26:09.466Z,4.19
2017-12-17T15:27:09.522Z,4.23
2017-12-17T15:29:02.612Z,4.10
2017-12-17T15:30:02.551Z,4.20
2017-12-17T15:31:55.534Z,4.19
2017-12-17T15:32:55.590Z,4.19
2017-12-17T15:34:48.691Z,4.20
2017-12-17T15:35:48.631Z,4.19
2017-12-17T15:37:41.657Z,4.14
2017-12-17T15:38:41.661Z,4.22
2017-12-17T15:40:34.634Z,4.20
2017-12-17T15:41:34.690Z,4.20
2017-12-17T15:43:27.688Z,4.05
2017-12-17T15:44:27.724Z,4.12
2017-12-17T15:46:20.704Z,4.12
2017-12-17T15:47:20.759Z,4.08
2017-12-17T15:49:13.869Z,4.08
2017-12-17T15:50:13.786Z,4.10
2017-12-17T15:52:06.771Z,4.08
2017-12-17T15:53:06.817Z,4.06
2017-12-17T15:54:59.835Z,4.08
2017-12-17T15:55:59.855Z,4.10
2017-12-17T15:57:52.849Z,4.06
2017-12-17T15:58:52.884Z,4.04
2017-12-17T16:00:46.373Z,4.06
2017-12-17T16:01:46.425Z,4.04
2017-12-17T16:03:39.419Z,4.10
2017-12-17T16:04:39.452Z,4.06
2017-12-17T16:06:32.549Z,4.02
2017-12-17T16:07:32.482Z,4.02
2017-12-17T16:09:25.481Z,4.02
2017-12-17T16:10:25.527Z,4.02
2017-12-17T16:12:18.490Z,3.99
2017-12-17T16:13:18.547Z,3.99
2017-12-17T16:15:11.542Z,3.99
2017-12-17T16:16:11.575Z,4.04
2017-12-17T16:18:04.573Z,4.08
2017-12-17T16:19:04.605Z,4.10
2017-12-17T16:20:57.587Z,4.06
2017-12-17T16:21:57.636Z,4.08
2017-12-17T16:23:50.629Z,4.04
2017-12-17T16:24:50.665Z,4.10
2017-12-17T16:26:43.640Z,4.08
2017-12-17T16:27:43.693Z,4.05
2017-12-17T16:29:36.742Z,4.06
2017-12-17T16:30:36.730Z,4.04
2017-12-17T16:32:29.805Z,4.06
2017-12-17T16:33:29.769Z,3.98
2017-12-17T16:35:22.793Z,3.95
2017-12-17T16:36:22.795Z,3.94
2017-12-17T16:38:15.899Z,4.01
2017-12-17T16:39:15.852Z,3.98
2017-12-17T16:41:08.800Z,3.98
2017-12-17T16:42:08.854Z,3.91
2017-12-17T16:44:01.852Z,3.94
2017-12-17T16:45:01.885Z,3.91
2017-12-17T16:46:54.890Z,3.98
2017-12-17T16:47:54.974Z,4.01
2017-12-17T16:49:47.914Z,3.95
2017-12-17T16:50:47.962Z,3.98
2017-12-17T16:52:40.927Z,3.91
2017-12-17T16:53:40.983Z,3.95
2017-12-17T16:55:33.984Z,3.94
2017-12-17T16:56:34.020Z,3.92
2017-12-17T16:58:27.038Z,3.88
2017-12-17T16:59:27.067Z,3.83
2017-12-17T17:01:20.034Z,3.87
2017-12-17T17:02:20.085Z,3.91
2017-12-17T17:04:13.114Z,3.86
2017-12-17T17:05:13.116Z,3.95
2017-12-17T17:07:06.097Z,3.94
2017-12-17T17:08:06.148Z,3.88
2017-12-17T17:09:59.144Z,3.95
2017-12-17T17:10:59.179Z,3.87
2017-12-17T17:12:52.161Z,3.91
2017-12-17T17:13:52.261Z,3.91
2017-12-17T17:15:45.206Z,3.91
2017-12-17T17:16:45.238Z,3.98
2017-12-17T17:18:38.296Z,3.96
2017-12-17T17:19:38.270Z,3.94
2017-12-17T17:21:31.241Z,3.91
2017-12-17T17:22:31.297Z,4.01
2017-12-17T17:24:24.303Z,3.92
2017-12-17T17:25:24.330Z,3.94
2017-12-17T17:27:17.312Z,3.96
2017-12-17T17:28:17.370Z,3.91
2017-12-17T17:30:10.365Z,3.94
2017-12-17T17:31:10.396Z,3.91
2017-12-17T17:33:03.380Z,3.99
2017-12-17T17:34:03.432Z,4.01
2017-12-17T17:35:56.434Z,4.02
2017-12-17T17:36:56.470Z,4.04
2017-12-17T17:38:49.470Z,3.96
2017-12-17T17:39:49.506Z,3.98
2017-12-17T17:41:42.491Z,4.04
2017-12-17T17:42:42.536Z,3.99
2017-12-17T17:44:35.529Z,4.05
2017-12-17T17:45:35.563Z,4.06
2017-12-17T17:47:28.549Z,4.06
2017-12-17T17:48:28.595Z,4.01
2017-12-17T17:50:21.617Z,4.05
2017-12-17T17:51:21.628Z,4.02
2017-12-17T17:53:14.606Z,4.12
2017-12-17T17:54:14.656Z,4.08
2017-12-17T17:56:07.652Z,4.05
2017-12-17T17:57:07.686Z,4.02
2017-12-17T17:59:00.681Z,4.02
2017-12-17T18:00:00.717Z,4.02
2017-12-17T18:01:53.688Z,4.10
2017-12-17T18:02:53.761Z,4.04
2017-12-17T18:04:46.741Z,4.08
2017-12-17T18:05:46.774Z,4.05
2017-12-17T18:07:39.761Z,4.04
2017-12-17T18:08:39.806Z,4.19
2017-12-17T18:10:32.798Z,4.10
2017-12-17T18:11:32.835Z,4.19
2017-12-17T18:13:25.817Z,4.06
2017-12-17T18:14:25.864Z,4.13
2017-12-17T18:16:18.865Z,4.19
2017-12-17T18:17:18.893Z,4.14
2017-12-17T18:19:11.890Z,4.17
2017-12-17T18:20:11.921Z,4.13
2017-12-17T18:22:04.902Z,4.04
2017-12-17T18:23:04.956Z,4.19
2017-12-17T18:24:57.951Z,4.20
2017-12-17T18:25:57.985Z,4.17
2017-12-17T18:27:50.984Z,4.20
2017-12-17T18:28:51.014Z,4.08
2017-12-17T18:30:44.008Z,4.06
2017-12-17T18:31:44.045Z,4.12
2017-12-17T18:33:37.021Z,4.19
2017-12-17T18:34:37.070Z,4.16
2017-12-17T18:36:30.100Z,4.17
2017-12-17T18:37:30.099Z,4.14
2017-12-17T18:39:23.119Z,4.13
2017-12-17T18:40:23.128Z,4.19
2017-12-17T18:42:16.108Z,4.22
2017-12-17T18:43:16.161Z,4.14
2017-12-17T18:45:09.182Z,4.16
2017-12-17T18:46:09.190Z,4.16
2017-12-17T18:48:02.166Z,4.16
2017-12-17T18:49:02.223Z,4.12
2017-12-17T18:50:55.309Z,4.12
2017-12-17T18:51:55.250Z,4.10
2017-12-17T18:53:48.360Z,4.24
2017-12-17T18:54:48.280Z,4.17
2017-12-17T18:56:41.274Z,4.12
2017-12-17T18:57:41.361Z,4.19
2017-12-17T18:59:34.456Z,4.13
2017-12-17T19:00:34.343Z,4.14
2017-12-17T19:02:27.317Z,4.16
2017-12-17T19:03:27.371Z,4.08
2017-12-17T19:05:20.493Z,4.14
2017-12-17T19:06:20.403Z,4.10
2017-12-17T19:08:13.428Z,4.13
2017-12-17T19:09:13.447Z,4.12
2017-12-17T19:11:06.431Z,4.17